Sand Spring Valley, Nevada Weather observations

Data are for 10 minute period ending at time listed.
 Day   Time   Solar   Ave.   Ave.  Ave.  Vector  Max.   Baro.   Total    
  of    of     Rad.   Air    Rel.  Wind   Wind   Wind  Press.  Precip.   
Year   Day            Temp.  Hum.  Speed  Dir.   Gust                    
2016   (PST)  Kw/m2    F      %     mph   deg.    mph    mb.     in.     
-------------------------------------------------------------------------
 209    6:00   0.00   62.1    54    0.0   209     1.0   855.4    0.00 
 209    6:10   0.00   64.5    42    1.3   209     2.4   855.5    0.00 
 209    6:20   0.00   65.6    42    0.7   307     3.1   855.7    0.00 
 209    6:30   0.00   66.5    36    0.7   322     2.8   855.7    0.00 
 209    6:40   0.00   68.6    38    0.2   328     1.8   855.9    0.00 
 209    6:50   0.00   69.4    39    0.3   220     1.6   855.9    0.00 
 209    7:00   0.00   69.6    45    1.9   217     2.7   856.0    0.00 
 209    7:10   0.00   72.4    37    0.0   213     0.3   856.0    0.00 
 209    7:20   0.00   72.9    34    0.0     0     0.0   856.1    0.00 
 209    7:30   0.00   75.3    30    0.2   214     1.5   856.2    0.00 
 209    7:40   0.00   75.9    28    1.2   216     2.0   856.3    0.00 
 209    7:50   0.00   75.7    31    0.4   217     1.4   856.2    0.00 
 209    8:00   0.00   76.7    29    0.1   217     0.9   856.1    0.00 
 209    8:10   0.00   78.0    27    1.5   224     2.3   856.2    0.00 
 209    8:20   0.00   80.6    21    0.5   227     1.4   856.1    0.00 
 209    8:30   0.00   81.4    25    1.1   274     3.1   856.0    0.00 
 209    8:40   0.00   83.0    21    0.2   282     0.9   856.0    0.00 
 209    8:50   0.00   86.1    14    0.0     0     0.0   855.9    0.00 
 209    9:00   0.00   87.9    15    0.1   284     0.9   855.8    0.00 
 209    9:10   0.00   87.7    17    0.5   278     1.9   855.7    0.00 
 209    9:20   0.00   87.9    18    1.2   289     2.2   855.6    0.00 
 209    9:30   0.00   89.8    16    0.8   277     2.2   855.5    0.00 
 209    9:40   0.00   90.7    13    0.7   277     2.4   855.4    0.00 
 209    9:50   0.00   91.6    12    1.7   280     3.5   855.4    0.00 
 209   10:00   0.00   91.6    13    0.6   283     3.1   855.4    0.00 
 209   10:10   0.00   92.9    13    0.7   270     1.8   855.4    0.00 
 209   10:20   0.00   93.6    11    0.8   278     1.8   855.3    0.00 
 209   10:30   0.00   94.4    10    1.5   260     5.0   855.2    0.00 
 209   10:40   0.00   94.7    10    1.3   303     3.7   855.1    0.00 
 209   10:50   0.00   95.8     9    1.5   319     5.9   855.1    0.00 
 209   11:00   0.00   96.0    10    1.7   319     4.5   855.0    0.00 
 209   11:10   0.00   97.5     8    1.2   326     3.9   855.0    0.00 
 209   11:20   0.00   97.9    10    1.8   352     4.7   855.0    0.00 
 209   11:30   0.00   98.5     8    2.4   348     5.7   855.0    0.00 
 209   11:40   0.00   98.3     8    2.6    43     5.8   854.9    0.00 
 209   11:50   0.00   98.0     9    5.6    60    10.4   854.8    0.00 
 209   12:00   0.00   97.8    10    6.0    83     9.3   854.7    0.00 
 209   12:10   0.00   97.7     9    4.2   106     9.4   854.6    0.00 
 209   12:20   0.00   99.5     8    3.3   155     9.3   854.5    0.00 
 209   12:30   0.00   98.4    10    7.6    83    14.2   854.5    0.00 
 209   12:40   0.00   98.1     9    5.7    84    16.6   854.4    0.00 
 209   12:50   0.00   98.9     9    4.1   112    10.2   854.4    0.00 
 209   13:00   0.00   99.2    10    2.7   263     9.2   854.2    0.00 
 209   13:10   0.00   99.7    10    1.7   295     3.9   854.2    0.00 
 209   13:20   0.00  101.0     9    2.4   329     9.3   854.1    0.00 
 209   13:30   0.00  100.9     8    4.0    17     8.3   854.0    0.00 
 209   13:40   0.00  101.0     8    3.5   169     6.6   853.8    0.00 
 209   13:50   0.00  102.1     9    1.9   226     6.1   853.8    0.00 
 209   14:00   0.00  101.4     9    2.1   320     5.9   853.6    0.00 
 209   14:10   0.00   98.2    13    6.0   310    12.1   853.5    0.00 
 209   14:20   0.00  101.1    11    1.2   267     3.0   853.5    0.00 
 209   14:30   0.00  104.0    10    1.8   204     3.9   853.4    0.00 
 209   14:40   0.00  101.9     8    5.0   112     9.1   853.2    0.00 
 209   14:50   0.00  100.8     9    7.9   101    12.8   853.1    0.00 
 209   15:00   0.00  101.7     8    4.7   138    11.6   853.1    0.00 
 209   15:10   0.00  102.5     8    3.3   156     7.2   853.0    0.00 
 209   15:20   0.00  101.0    11    4.2   309     8.3   852.8    0.00 
 209   15:30   0.00   99.0    17    6.0   230     9.6   852.8    0.00 
 209   15:40   0.00   98.3    13    3.5   219    11.7   852.7    0.00 
 209   15:50   0.00   93.4    18   10.2   242    15.4   852.6    0.00 
 209   16:00   0.00   92.8    17    5.5   248    11.6   852.4    0.00 
 209   16:10   0.00   99.4    17    0.3   256     2.2   852.1    0.00 
 209   16:20   0.00  100.7    15    3.6   199     9.3   852.1    0.00 
 209   16:30   0.00   98.7    13    6.7   190    12.1   852.0    0.00 
 209   16:40   0.00  101.5    11    3.6   184     8.9   852.0    0.00 
 209   16:50   0.00  100.6     9    3.4   127    10.6   852.0    0.00 
 209   17:00   0.00   98.8    19    2.1   249     6.4   852.0    0.00 
 209   17:10   0.00   92.7    25    5.5   256     8.4   851.8    0.00 
 209   17:20   0.00   89.5    24    7.3   255    11.2   851.7    0.00 
 209   17:30   0.00   90.0    24    7.3   249    10.8   851.4    0.00 
 209   17:40   0.00   89.6    26    6.5   247     9.1   851.4    0.00 
 209   17:50   0.00   89.0    28    5.7   231     8.0   851.4    0.00 
 209   18:00   0.00   87.9    27    6.1   230     7.9   851.4    0.00 
 209   18:10   0.00   86.5    29    5.6   230     7.5   851.5    0.00 
 209   18:20   0.00   88.8    27    4.7   226     6.9   851.6    0.00 
 209   18:30   0.00   87.3    29    6.0   218     8.7   851.7    0.00 
 209   18:40   0.00   85.6    30    6.6   209     8.4   851.8    0.00 
 209   18:50   0.00   85.0    31    5.5   204     6.4   852.0    0.00 
 209   19:00   0.00   83.6    34    6.8   210    10.3   852.1    0.00 
 209   19:10   0.00   92.6    13   10.8   179    24.1   852.2    0.00 
 209   19:20   0.00   96.0    11    8.7   153    15.8   852.1    0.00 
 209   19:30   0.00   94.2    12   12.4   167    28.8   852.0    0.00 
 209   19:40   0.00   93.7    12   13.6   162    31.3   852.0    0.00 
 209   19:50   0.00   93.7    12   19.8   188    35.6   852.0    0.00 
 209   20:00   0.00   91.5    14   12.6   213    20.8   852.2    0.00 
 209   20:10   0.00   90.4    14   12.7   209    18.6   852.4    0.00 
 209   20:20   0.00   87.5    18    8.4   220    15.2   852.5    0.00 
 209   20:30   0.00   85.6    20    7.2   222    14.0   852.7    0.00 
 209   20:40   0.00   84.8    22    6.3   224    13.2   852.9    0.00 
 209   20:50   0.00   82.8    23    6.6   238     9.8   853.0    0.00 
 209   21:00   0.00   83.1    22    6.7   248     9.7   853.1    0.00 
 209   21:10   0.00   81.6    22    7.1   246     9.0   853.2    0.00 
 209   21:20   0.00   77.8    28    6.2   263     8.0   853.3    0.00 
 209   21:30   0.00   77.6    26    6.1   250     8.1   853.3    0.00 
 209   21:40   0.00   77.6    26    6.1   251     7.2   853.3    0.00 
 209   21:50   0.00   76.8    27    6.2   242     7.5   853.4    0.00 
 209   22:00   0.00   77.3    26    5.9   247     7.2   853.5    0.00 
 209   22:10   0.00   78.3    24    6.3   238     9.0   853.5    0.00 
 209   22:20   0.00   78.0    25    6.5   223     7.8   853.5    0.00 
 209   22:30   0.00   75.7    30    6.1   224     7.4   853.5    0.00 
 209   22:40   0.00   72.9    37    4.9   242     5.7   853.5    0.00 
 209   22:50   0.00   71.0    40    4.0   245     5.3   853.5    0.00 
 209   23:00   0.00   73.1    37    4.2   222     6.0   853.5    0.00 
 209   23:10   0.00   72.6    35    1.2   330     3.7   853.6    0.00 
 209   23:20   0.00   75.6    28    0.3   271     3.4   853.6    0.00 
 209   23:30   0.00   75.8    26    3.3   340     5.8   853.6    0.00 
 209   23:40   0.00   74.9    26    2.3   358     4.7   853.6    0.00 
 209   23:50   0.00   73.6    26    1.7   358     5.1   853.7    0.00 
 210    0:00   0.00   72.4    27    1.6   355     4.2   853.6    0.00 
 210    0:10   0.00   71.2    34    5.0   329     7.2   853.6    0.00 
 210    0:20   0.00   69.5    36    5.2   315     6.4   853.7    0.00 
 210    0:30   0.00   69.1    40    2.8   245     5.0   853.8    0.00 
 210    0:40   0.00   66.9    41    1.5    64     4.0   853.9    0.00 
 210    0:50   0.00   71.4    25    2.8    38     3.9   854.0    0.00 
 210    1:00   0.00   71.3    23    3.5    41     4.6   854.1    0.00 
 210    1:10   0.00   70.8    28    2.1   136     4.4   854.1    0.00 
 210    1:20   0.00   64.6    49    4.3   192     8.0   854.1    0.00 
 210    1:30   0.00   64.0    43    6.7   188     8.3   853.9    0.00 
 210    1:40   0.00   66.6    37    4.7   186     7.5   853.9    0.00 
 210    1:50   0.00   67.3    34    0.8   190     3.8   853.9    0.00 
 210    2:00   0.00   69.3    33    6.9   190     8.8   853.8    0.00 
 210    2:10   0.00   67.5    39    7.8   200     8.8   853.8    0.00 
 210    2:20   0.00   67.5    40    7.0   214     9.0   853.9    0.00 
 210    2:30   0.00   68.8    34    5.6   272     7.8   854.0    0.00 
 210    2:40   0.00   65.2    41    5.6   267     6.6   853.9    0.00 
 210    2:50   0.00   62.4    49    5.5   245     6.9   853.9    0.00 
 210    3:00   0.00   62.4    48    4.8   244     6.7   853.9    0.00 
 210    3:10   0.00   62.6    45    1.5   216     5.5   853.9    0.00 
 210    3:20   0.00   66.0    35    2.0   246     4.9   853.9    0.00 
 210    3:30   0.00   64.6    38    1.7   223     3.7   853.9    0.00 
 210    3:40   0.00   64.5    42    3.9   241     5.8   853.9    0.00 
 210    3:50   0.00   63.6    44    2.8   254     5.7   854.0    0.00 
 210    4:00   0.00   64.7    38    0.4   208     3.6   854.0    0.00 
 210    4:10   0.00   65.4    36    3.4   302     8.8   854.1    0.00 
 210    4:20   0.00   67.2    34    3.5   303     5.6   854.2    0.00 
 210    4:30   0.00   64.3    40    2.3   301     4.0   854.3    0.00 
 210    4:40   0.00   61.2    51    4.0   260     4.9   854.3    0.00 
 210    4:50   0.00   60.1    49    3.0   271     3.8   854.3    0.00 
 210    5:00   0.00   62.3    38    3.6   277     5.6   854.3    0.00 
 210    5:10   0.00   60.6    46    4.3   290     5.0   854.4    0.00 
 210    5:20   0.00   61.3    44    3.2   308     4.5   854.6    0.00 
 210    5:30   0.00   63.2    45    1.6   288     2.9   854.7    0.00 
 210    5:40   0.00   61.6    59    3.9   296     5.2   854.7    0.00 
 210    5:50   0.00   64.0    55    3.8   282     4.5   854.7    0.00 

Return to Sand Spring Valley graphs page.


Western Regional Climate Center,wrcc@dri.edu